Time;durP1;ratioP1;P1;durP2;ratioP2;P2;SDS_P1;SDS_P2;PMS_P1;PMS_P2;Temp;Humidity;BMP_temperature;BMP_pressure;BME280_temperature;BME280_humidity;BME280_pressure;Samples;Min_cycle;Max_cycle;Signal;HPM_P1;HPM_P2
2021/12/23 00:01:14;;;;;;;15.45;11.23;;;-1.60;99.90;;;;;;5110722;28;20127;-78
2021/12/23 00:03:39;;;;;;;16.38;11.13;;;0.60;99.90;;;;;;5094595;28;20044;-75
2021/12/23 00:06:05;;;;;;;16.98;11.75;;;-0.80;99.90;;;;;;5076499;28;20477;-76
2021/12/23 00:08:31;;;;;;;20.58;12.57;;;-0.20;99.90;;;;;;5094832;28;20052;-77
2021/12/23 00:10:56;;;;;;;18.80;11.60;;;-1.60;99.90;;;;;;5076741;28;20048;-77
2021/12/23 00:13:23;;;;;;;22.80;12.17;;;-1.60;99.90;;;;;;5094746;28;20449;-77
2021/12/23 00:23:47;;;;;;;21.45;12.50;;;-1.60;99.90;;;;;;5076447;28;20055;-76
2021/12/23 00:26:14;;;;;;;22.02;11.88;;;0.00;99.90;;;;;;5094143;28;20040;-78
2021/12/23 00:28:40;;;;;;;17.50;11.68;;;-0.80;99.90;;;;;;5076141;28;20376;-76
2021/12/23 00:31:06;;;;;;;19.02;11.00;;;-1.60;99.90;;;;;;5093944;28;20051;-75
2021/12/23 00:33:35;;;;;;;20.65;12.15;;;-1.60;99.90;;;;;;5094345;28;20077;-75
2021/12/23 00:36:03;;;;;;;20.80;12.95;;;-1.60;99.90;;;;;;5094221;28;20043;-78
2021/12/23 00:38:34;;;;;;;25.95;11.90;;;-1.60;99.90;;;;;;5076145;28;20048;-74
2021/12/23 00:41:02;;;;;;;19.25;11.52;;;-1.50;99.90;;;;;;5093981;28;20123;-77
2021/12/23 00:43:29;;;;;;;16.80;12.30;;;0.40;99.90;;;;;;5093903;28;20498;-77
2021/12/23 00:45:55;;;;;;;21.63;11.80;;;-1.60;99.90;;;;;;5093584;28;20406;-77
2021/12/23 00:48:21;;;;;;;23.30;12.40;;;-1.60;99.90;;;;;;5093789;28;20491;-75
2021/12/23 00:50:47;;;;;;;18.92;11.93;;;-1.90;99.90;;;;;;5076046;28;20093;-75
2021/12/23 00:53:18;;;;;;;15.23;11.38;;;-0.70;99.90;;;;;;5093766;28;20091;-78
2021/12/23 00:55:48;;;;;;;18.05;11.50;;;-1.50;99.90;;;;;;5093708;28;20055;-76
2021/12/23 00:58:14;;;;;;;19.27;11.82;;;-1.50;99.90;;;;;;5093605;28;20044;-76
2021/12/23 01:00:39;;;;;;;17.83;11.82;;;-1.20;99.90;;;;;;5093785;28;20376;-78
2021/12/23 01:03:06;;;;;;;21.08;11.20;;;-1.50;99.90;;;;;;5058968;28;20101;-76
2021/12/23 01:05:31;;;;;;;16.92;11.38;;;-1.00;99.90;;;;;;5075801;28;20051;-75
2021/12/23 01:07:57;;;;;;;22.27;12.68;;;-1.10;99.90;;;;;;5093815;28;20040;-76
2021/12/23 01:10:24;;;;;;;17.88;11.77;;;-1.50;99.90;;;;;;5093626;28;20453;-77
2021/12/23 01:12:57;;;;;;;23.02;11.80;;;-1.50;99.90;;;;;;5093416;28;20097;-76
2021/12/23 01:17:57;;;;;;;;;;;-1.50;99.90;;;;;;5094039;28;20052;-77
2021/12/23 01:20:29;;;;;;;18.27;11.07;;;-0.20;99.90;;;;;;5093501;28;19924;-75
2021/12/23 01:23:07;;;;;;;18.52;12.18;;;0.20;99.90;;;;;;5090285;28;20048;-78
2021/12/23 01:25:35;;;;;;;16.63;10.98;;;0.30;99.90;;;;;;5093148;28;20483;-75
2021/12/23 01:28:02;;;;;;;21.63;11.95;;;-0.20;99.90;;;;;;5093494;28;20103;-74
2021/12/23 01:30:28;;;;;;;16.58;11.30;;;-1.50;99.90;;;;;;5093209;28;20530;-77
2021/12/23 01:32:56;;;;;;;18.75;12.85;;;-1.40;99.90;;;;;;5075433;28;20055;-74
2021/12/23 01:35:23;;;;;;;19.20;13.15;;;-1.10;99.90;;;;;;5093211;28;20499;-75
2021/12/23 01:37:49;;;;;;;19.80;10.95;;;-1.50;99.90;;;;;;5093480;28;20123;-75
2021/12/23 01:40:17;;;;;;;20.95;13.00;;;-1.40;99.90;;;;;;5093148;28;20048;-75
2021/12/23 01:42:43;;;;;;;17.23;11.38;;;-1.40;99.90;;;;;;5093452;28;20044;-78
2021/12/23 01:45:16;;;;;;;17.52;11.75;;;-1.30;99.90;;;;;;5093172;28;20051;-76
2021/12/23 01:47:43;;;;;;;23.65;11.80;;;-0.50;99.90;;;;;;5093237;28;20048;-76
2021/12/23 01:50:11;;;;;;;20.95;12.63;;;-1.00;99.90;;;;;;5075157;28;20083;-77
2021/12/23 01:52:38;;;;;;;17.40;11.18;;;0.90;99.90;;;;;;5092981;28;20488;-76
2021/12/23 01:55:06;;;;;;;14.38;10.90;;;-1.00;99.90;;;;;;5093041;28;20519;-75
2021/12/23 01:57:33;;;;;;;19.50;12.85;;;-1.20;99.90;;;;;;5093146;28;20483;-76
2021/12/23 02:00:00;;;;;;;18.25;11.60;;;-1.20;99.90;;;;;;5092904;28;20492;-77
2021/12/23 02:02:26;;;;;;;16.08;11.50;;;-1.20;99.90;;;;;;5093044;28;20055;-76
2021/12/23 02:04:53;;;;;;;18.15;13.02;;;0.70;99.90;;;;;;5095079;28;20557;-76
2021/12/23 02:07:19;;;;;;;18.88;12.95;;;-1.30;99.90;;;;;;5096988;28;20044;-75
2021/12/23 02:09:45;;;;;;;16.75;11.35;;;-1.20;99.90;;;;;;5096735;28;20044;-75
2021/12/23 02:12:12;;;;;;;18.45;11.40;;;-1.20;99.90;;;;;;5078991;28;20055;-77
2021/12/23 02:14:38;;;;;;;17.88;11.07;;;0.20;99.90;;;;;;5096881;28;20108;-76
2021/12/23 02:17:05;;;;;;;20.63;12.85;;;-1.20;99.90;;;;;;5096542;28;20044;-76
2021/12/23 02:19:32;;;;;;;17.55;11.65;;;-0.50;99.90;;;;;;5096669;28;20052;-74
2021/12/23 02:21:58;;;;;;;20.77;11.77;;;-0.80;99.90;;;;;;5061605;28;20048;-78
2021/12/23 02:24:23;;;;;;;21.52;13.05;;;-1.10;99.90;;;;;;5096467;28;20062;-78
2021/12/23 02:26:49;;;;;;;19.77;11.98;;;-1.10;99.90;;;;;;5096778;28;20051;-75
2021/12/23 02:29:15;;;;;;;19.15;12.63;;;1.00;99.90;;;;;;5096897;28;20083;-75
2021/12/23 02:31:40;;;;;;;14.27;10.50;;;0.70;99.90;;;;;;5096577;28;20044;-75
2021/12/23 02:34:06;;;;;;;18.00;12.07;;;-1.10;99.90;;;;;;5096455;28;20044;-74
2021/12/23 02:36:32;;;;;;;18.83;11.77;;;-1.20;99.90;;;;;;5096415;28;20040;-75
2021/12/23 02:38:59;;;;;;;21.02;12.57;;;-1.20;99.90;;;;;;5096100;28;20445;-77
2021/12/23 02:41:25;;;;;;;21.45;12.52;;;-1.20;99.90;;;;;;5096471;28;20048;-77
2021/12/23 02:43:51;;;;;;;17.65;12.77;;;0.10;99.90;;;;;;5096414;28;20055;-77
2021/12/23 02:46:20;;;;;;;26.40;12.95;;;-1.20;99.90;;;;;;5096083;28;20118;-78
2021/12/23 02:48:46;;;;;;;20.00;11.43;;;-0.50;99.90;;;;;;5096179;28;20176;-74
2021/12/23 02:51:14;;;;;;;21.33;13.10;;;0.80;99.90;;;;;;5096282;28;20081;-75
2021/12/23 02:53:42;;;;;;;20.27;12.63;;;-1.10;99.90;;;;;;5096013;28;20052;-78
2021/12/23 02:56:11;;;;;;;17.13;10.95;;;-0.20;99.90;;;;;;5078239;28;20510;-77
2021/12/23 02:58:37;;;;;;;19.98;11.48;;;-1.10;99.90;;;;;;5078204;28;20174;-76
2021/12/23 03:01:06;;;;;;;19.77;12.52;;;-1.30;99.90;;;;;;5095976;28;20474;-75
2021/12/23 03:03:32;;;;;;;20.67;12.43;;;-1.10;99.90;;;;;;5078178;28;20047;-77
2021/12/23 03:05:59;;;;;;;18.75;11.95;;;-1.10;99.90;;;;;;5095786;28;20044;-78
2021/12/23 03:08:40;;;;;;;15.93;11.02;;;-1.10;99.90;;;;;;5077784;28;20174;-78
2021/12/23 03:11:08;;;;;;;18.45;12.32;;;-1.00;99.90;;;;;;5095888;28;20040;-78
2021/12/23 03:13:35;;;;;;;20.65;12.45;;;-1.00;99.90;;;;;;5077916;28;20048;-77
2021/12/23 03:16:01;;;;;;;19.30;13.07;;;-1.10;99.90;;;;;;5076195;28;20403;-78
2021/12/23 03:18:27;;;;;;;20.23;12.25;;;-1.00;99.90;;;;;;5095620;28;20074;-75
2021/12/23 03:20:53;;;;;;;20.45;12.95;;;-1.10;99.90;;;;;;5060533;28;20056;-78
2021/12/23 03:23:19;;;;;;;20.33;11.90;;;-1.00;99.90;;;;;;5095348;28;20058;-75
2021/12/23 03:25:45;;;;;;;19.33;12.35;;;0.30;99.90;;;;;;5111433;28;20044;-77
2021/12/23 03:28:11;;;;;;;18.23;11.02;;;-1.00;99.90;;;;;;5095507;28;20051;-76
2021/12/23 03:30:37;;;;;;;23.45;13.82;;;-1.00;99.90;;;;;;5095304;28;20036;-76
2021/12/23 03:33:04;;;;;;;21.10;12.73;;;-0.30;99.90;;;;;;5095325;28;20055;-76
2021/12/23 03:35:29;;;;;;;21.52;11.95;;;-1.00;99.90;;;;;;5095304;28;20090;-75
2021/12/23 03:37:56;;;;;;;17.83;11.40;;;-0.40;99.90;;;;;;5095274;28;20060;-77
2021/12/23 03:40:22;;;;;;;15.93;10.05;;;-1.00;99.90;;;;;;5095341;28;20127;-76
2021/12/23 03:42:48;;;;;;;;;;;-0.70;99.90;;;;;;5095635;28;20483;-79
2021/12/23 03:45:14;;;;;;;16.08;11.77;;;-1.00;99.90;;;;;;5094956;28;20019;-74
2021/12/23 03:47:40;;;;;;;20.08;13.18;;;0.80;99.90;;;;;;5076915;28;20093;-75
2021/12/23 03:50:07;;;;;;;19.38;11.57;;;-0.90;99.90;;;;;;5094975;28;20055;-77
2021/12/23 03:52:33;;;;;;;17.30;11.43;;;-1.00;99.90;;;;;;5094839;28;20491;-77
2021/12/23 03:54:59;;;;;;;19.02;12.13;;;-1.00;99.90;;;;;;5077234;28;20052;-77
2021/12/23 03:57:25;;;;;;;21.60;12.82;;;0.50;99.90;;;;;;5095070;28;20036;-77
2021/12/23 03:59:51;;;;;;;19.77;11.98;;;-1.00;99.90;;;;;;5094874;28;20458;-78
2021/12/23 04:02:16;;;;;;;18.17;12.07;;;-0.50;99.90;;;;;;5094778;28;20048;-78
2021/12/23 04:04:42;;;;;;;21.35;12.80;;;-0.90;99.90;;;;;;5094605;28;20097;-78
2021/12/23 04:07:08;;;;;;;19.33;12.18;;;-0.90;99.90;;;;;;5076450;28;20054;-74
2021/12/23 04:09:34;;;;;;;21.57;13.30;;;0.00;99.90;;;;;;5094514;28;20052;-78
2021/12/23 04:12:00;;;;;;;20.52;12.45;;;-0.90;99.90;;;;;;5094901;28;20282;-77
2021/12/23 04:14:26;;;;;;;20.95;12.18;;;-0.80;99.90;;;;;;5094568;28;20092;-76
2021/12/23 04:16:51;;;;;;;18.25;12.45;;;-0.90;99.90;;;;;;5094512;28;20048;-76
2021/12/23 04:19:17;;;;;;;20.70;12.88;;;-0.90;99.90;;;;;;5094448;28;20051;-78
2021/12/23 04:21:43;;;;;;;17.38;11.50;;;0.90;99.90;;;;;;5094399;28;20059;-77
2021/12/23 04:24:10;;;;;;;17.83;11.15;;;-1.10;99.90;;;;;;5094172;28;20052;-76
2021/12/23 04:26:38;;;;;;;27.17;12.07;;;0.30;99.90;;;;;;5093937;28;20092;-75
2021/12/23 04:29:05;;;;;;;23.27;12.55;;;0.00;99.90;;;;;;5094384;28;20052;-77
2021/12/23 04:31:31;;;;;;;17.88;12.10;;;-0.90;99.90;;;;;;5094267;28;20123;-77
2021/12/23 04:33:57;;;;;;;18.20;11.98;;;0.70;99.90;;;;;;5094163;28;20048;-78
2021/12/23 04:36:27;;;;;;;22.13;12.35;;;-0.30;99.90;;;;;;5075689;28;20460;-76
2021/12/23 04:38:52;;;;;;;19.05;11.20;;;-0.80;99.90;;;;;;5093861;28;20453;-75
2021/12/23 04:41:18;;;;;;;16.88;10.52;;;-0.80;99.90;;;;;;5094105;28;20043;-77
2021/12/23 04:43:44;;;;;;;18.20;10.73;;;1.00;99.90;;;;;;5094056;28;20047;-77
2021/12/23 04:46:10;;;;;;;20.15;12.65;;;-0.80;99.90;;;;;;5093791;28;20036;-78
2021/12/23 04:48:37;;;;;;;20.63;12.13;;;-0.80;99.90;;;;;;5093884;28;20048;-78
2021/12/23 04:51:02;;;;;;;15.45;10.93;;;-0.70;99.90;;;;;;5093868;28;20086;-77
2021/12/23 04:53:28;;;;;;;18.45;10.93;;;-0.70;99.90;;;;;;5093735;28;20453;-75
2021/12/23 04:55:55;;;;;;;17.88;11.18;;;-0.70;99.90;;;;;;5058725;28;20095;-77
2021/12/23 04:58:21;;;;;;;16.13;10.43;;;-0.70;99.90;;;;;;5093789;28;20048;-75
2021/12/23 05:00:49;;;;;;;20.88;11.90;;;-0.70;99.90;;;;;;5093688;28;20059;-77
2021/12/23 05:03:16;;;;;;;17.00;12.25;;;-0.70;99.90;;;;;;5093718;28;20044;-78
2021/12/23 05:05:42;;;;;;;20.30;12.75;;;-0.70;99.90;;;;;;5093605;28;20085;-78
2021/12/23 05:08:07;;;;;;;19.70;12.23;;;-0.70;99.90;;;;;;5093731;28;20044;-75
2021/12/23 05:10:33;;;;;;;19.60;10.95;;;-0.70;99.90;;;;;;5093726;28;20086;-78
2021/12/23 05:13:01;;;;;;;19.45;11.27;;;-0.70;99.90;;;;;;5093668;28;20044;-76
2021/12/23 05:15:27;;;;;;;21.63;11.95;;;-0.80;99.90;;;;;;5093517;28;20078;-76
2021/12/23 05:17:53;;;;;;;18.13;10.40;;;-0.60;99.90;;;;;;5092557;28;20445;-77
2021/12/23 05:20:19;;;;;;;17.55;12.02;;;-0.70;99.90;;;;;;5093465;28;20122;-75
2021/12/23 05:22:46;;;;;;;18.38;11.70;;;-0.70;99.90;;;;;;5093449;28;20502;-77
2021/12/23 05:25:12;;;;;;;20.98;11.88;;;0.80;99.90;;;;;;5093177;28;20050;-76
2021/12/23 05:27:38;;;;;;;19.90;11.52;;;-0.20;99.90;;;;;;5093549;28;20125;-77
2021/12/23 05:30:06;;;;;;;19.55;12.15;;;-0.60;99.90;;;;;;5093353;28;20487;-78
2021/12/23 05:32:32;;;;;;;17.17;11.45;;;-0.60;99.90;;;;;;5093233;28;20036;-78
2021/12/23 05:34:57;;;;;;;20.13;11.60;;;1.10;99.90;;;;;;5093309;28;20101;-75
2021/12/23 05:37:23;;;;;;;21.23;12.05;;;-0.70;99.90;;;;;;5093330;28;20046;-78
2021/12/23 05:39:49;;;;;;;20.85;11.20;;;1.20;99.90;;;;;;5095332;28;20051;-75
2021/12/23 05:42:15;;;;;;;18.98;12.10;;;-0.60;99.90;;;;;;5113658;28;20055;-77
2021/12/23 05:44:40;;;;;;;15.85;12.13;;;-0.60;99.90;;;;;;5079448;28;20044;-78
2021/12/23 05:47:07;;;;;;;15.85;11.15;;;-0.60;99.90;;;;;;5097398;28;20052;-76
2021/12/23 05:49:34;;;;;;;21.30;11.52;;;-0.60;99.90;;;;;;5079468;28;20060;-78
2021/12/23 05:52:00;;;;;;;17.75;11.27;;;-0.50;99.90;;;;;;5079272;28;20126;-76
2021/12/23 05:54:26;;;;;;;19.27;12.57;;;-0.50;99.90;;;;;;5096935;28;20085;-76
2021/12/23 05:56:52;;;;;;;18.13;11.27;;;-0.60;99.90;;;;;;5097273;28;20051;-76
2021/12/23 05:59:18;;;;;;;21.98;11.65;;;-0.50;99.90;;;;;;5097238;28;20122;-76
2021/12/23 06:01:44;;;;;;;20.25;12.15;;;-0.50;99.90;;;;;;5097127;28;20052;-78
2021/12/23 06:04:11;;;;;;;18.33;12.07;;;-0.50;99.90;;;;;;5097091;28;20411;-77
2021/12/23 06:06:36;;;;;;;20.05;11.45;;;-0.50;99.90;;;;;;5096763;28;20048;-75
2021/12/23 06:09:02;;;;;;;21.33;11.15;;;-1.40;99.90;;;;;;5078815;28;20055;-77
2021/12/23 06:11:28;;;;;;;18.80;12.00;;;1.20;99.90;;;;;;5097107;28;20417;-76
2021/12/23 06:13:53;;;;;;;17.88;11.43;;;0.40;99.90;;;;;;5097077;28;20048;-77
2021/12/23 06:16:19;;;;;;;16.70;11.40;;;-0.50;99.90;;;;;;5096661;28;20044;-76
2021/12/23 06:18:45;;;;;;;19.25;11.13;;;-0.50;99.90;;;;;;5078288;28;20047;-79
2021/12/23 06:21:11;;;;;;;18.52;12.18;;;-0.50;99.90;;;;;;5096538;28;20131;-77
2021/12/23 06:23:36;;;;;;;22.52;13.45;;;-0.50;99.90;;;;;;5096612;28;20063;-76
2021/12/23 06:26:03;;;;;;;20.92;12.23;;;0.40;99.90;;;;;;5096456;28;20449;-78
2021/12/23 06:28:29;;;;;;;17.98;12.23;;;0.40;99.90;;;;;;5096764;28;20082;-77
2021/12/23 06:30:55;;;;;;;19.52;12.43;;;-0.40;99.90;;;;;;5096515;28;20051;-78
2021/12/23 06:33:20;;;;;;;18.03;11.10;;;1.00;99.90;;;;;;5096531;28;20048;-77
2021/12/23 06:35:46;;;;;;;18.65;11.65;;;-0.40;99.90;;;;;;5096460;28;20349;-78
2021/12/23 06:38:12;;;;;;;20.98;12.07;;;-0.30;99.90;;;;;;5096674;28;20043;-77
2021/12/23 06:40:39;;;;;;;25.55;11.57;;;-0.50;99.90;;;;;;5078156;28;20415;-77
2021/12/23 06:43:06;;;;;;;20.25;13.27;;;1.40;99.90;;;;;;5096426;28;20036;-76
2021/12/23 06:45:31;;;;;;;20.17;12.10;;;-0.50;99.90;;;;;;5077914;28;20079;-78
2021/12/23 06:47:57;;;;;;;18.52;11.90;;;-0.50;99.90;;;;;;5096234;28;20141;-75
2021/12/23 06:50:23;;;;;;;21.40;12.60;;;-0.50;99.90;;;;;;5078083;28;20398;-75
2021/12/23 06:52:50;;;;;;;19.40;13.23;;;-0.50;99.90;;;;;;5096118;28;20048;-76
2021/12/23 06:55:17;;;;;;;21.13;13.10;;;0.60;99.90;;;;;;5096010;28;20079;-76
2021/12/23 06:57:43;;;;;;;19.58;12.93;;;-0.50;99.90;;;;;;5096151;28;20051;-76
2021/12/23 07:00:14;;;;;;;22.27;13.80;;;1.00;99.90;;;;;;5096027;28;20456;-75
2021/12/23 07:02:40;;;;;;;19.42;11.75;;;-0.40;99.90;;;;;;5077478;28;20052;-76
2021/12/23 07:05:08;;;;;;;20.15;13.65;;;-0.50;99.90;;;;;;5077983;28;20040;-77
2021/12/23 07:07:52;;;;;;;21.75;12.80;;;-0.50;99.90;;;;;;5095919;28;20475;-76
2021/12/23 07:10:20;;;;;;;21.42;13.10;;;0.50;99.90;;;;;;5077851;28;20399;-76
2021/12/23 07:12:46;;;;;;;22.98;12.90;;;-0.50;99.90;;;;;;5078100;28;20056;-78
2021/12/23 07:15:12;;;;;;;21.10;13.02;;;-0.20;99.90;;;;;;5095670;28;20129;-76
2021/12/23 07:17:38;;;;;;;20.20;12.75;;;0.40;99.90;;;;;;5095624;28;20052;-75
2021/12/23 07:20:04;;;;;;;18.15;11.90;;;-0.40;99.90;;;;;;5095635;28;20044;-78
2021/12/23 07:22:30;;;;;;;21.92;13.43;;;-0.40;99.90;;;;;;5073818;28;20092;-77
2021/12/23 07:24:56;;;;;;;18.80;11.95;;;-0.40;99.90;;;;;;5074061;28;20091;-75
2021/12/23 07:27:22;;;;;;;23.33;13.00;;;-0.20;99.90;;;;;;5075421;28;20091;-78
2021/12/23 07:29:48;;;;;;;22.65;12.32;;;0.90;99.90;;;;;;5075280;28;20058;-76
2021/12/23 07:32:14;;;;;;;21.55;13.40;;;-0.40;99.90;;;;;;5075108;28;20059;-77
2021/12/23 07:34:42;;;;;;;21.60;12.90;;;1.50;99.90;;;;;;5075138;28;20044;-77
2021/12/23 07:37:12;;;;;;;24.95;13.27;;;1.10;99.90;;;;;;5073649;28;20064;-75
2021/12/23 07:39:39;;;;;;;20.27;12.85;;;-0.40;99.90;;;;;;5074227;28;20086;-76
2021/12/23 07:42:06;;;;;;;22.90;12.07;;;-0.40;99.90;;;;;;5075054;28;20097;-75
2021/12/23 07:44:33;;;;;;;22.33;13.30;;;-0.40;99.90;;;;;;5074900;28;20066;-75
2021/12/23 07:46:59;;;;;;;21.38;13.07;;;-0.40;99.90;;;;;;5074793;28;20095;-78
2021/12/23 07:49:25;;;;;;;18.60;12.57;;;-0.40;99.90;;;;;;5074692;28;20084;-78
2021/12/23 07:51:50;;;;;;;22.98;13.77;;;-0.40;99.90;;;;;;5073826;28;20055;-76
2021/12/23 07:54:17;;;;;;;23.73;14.83;;;-0.20;99.90;;;;;;5074613;28;20473;-76
2021/12/23 07:56:42;;;;;;;20.80;12.68;;;-0.40;99.90;;;;;;5073569;28;20354;-76
2021/12/23 07:59:08;;;;;;;21.67;14.15;;;1.10;99.90;;;;;;5073633;28;20131;-76
2021/12/23 08:01:34;;;;;;;23.42;14.57;;;0.80;99.90;;;;;;5073924;28;20051;-76
2021/12/23 08:04:00;;;;;;;22.33;15.13;;;0.50;99.90;;;;;;5074572;28;20052;-78
2021/12/23 08:06:26;;;;;;;24.23;13.50;;;-0.40;99.90;;;;;;5073197;28;20048;-76
2021/12/23 08:08:52;;;;;;;23.75;15.90;;;1.30;99.90;;;;;;5074088;28;20098;-75
2021/12/23 08:11:18;;;;;;;19.77;13.00;;;-0.30;99.90;;;;;;5074593;28;20446;-74
2021/12/23 08:13:44;;;;;;;24.95;14.70;;;0.60;99.90;;;;;;5074443;28;20052;-75
2021/12/23 08:16:09;;;;;;;22.70;12.80;;;0.50;99.90;;;;;;5074315;28;20102;-75
2021/12/23 08:18:35;;;;;;;25.40;15.43;;;1.00;99.90;;;;;;5073356;28;20418;-75
2021/12/23 08:21:01;;;;;;;25.40;15.05;;;0.20;99.90;;;;;;5074555;28;20067;-78
2021/12/23 08:23:27;;;;;;;23.17;14.60;;;0.10;99.90;;;;;;5094296;28;20098;-76
2021/12/23 08:25:54;;;;;;;25.48;15.38;;;-0.30;99.90;;;;;;5094169;28;20052;-77
2021/12/23 08:28:21;;;;;;;22.63;15.18;;;-0.30;99.90;;;;;;5094460;28;20074;-76
2021/12/23 08:30:46;;;;;;;23.98;15.98;;;-0.30;99.90;;;;;;5094328;28;20078;-75
2021/12/23 08:33:12;;;;;;;23.05;14.52;;;-0.30;99.90;;;;;;5076357;28;20552;-78
2021/12/23 08:35:38;;;;;;;23.48;15.38;;;0.20;99.90;;;;;;5094181;28;20036;-76
2021/12/23 08:38:05;;;;;;;27.85;15.40;;;-0.20;99.90;;;;;;5094235;28;20040;-78
2021/12/23 08:40:32;;;;;;;26.13;14.60;;;1.30;99.90;;;;;;5094274;28;20433;-78
2021/12/23 08:42:59;;;;;;;22.88;15.02;;;0.30;99.90;;;;;;5094192;28;20051;-77
2021/12/23 08:45:29;;;;;;;25.75;14.50;;;-0.30;99.90;;;;;;5093888;28;20127;-74
2021/12/23 08:47:56;;;;;;;26.40;15.38;;;1.70;99.90;;;;;;5093972;28;20127;-76
2021/12/23 08:50:23;;;;;;;23.73;15.80;;;0.20;99.90;;;;;;5093920;28;20048;-75
2021/12/23 08:52:49;;;;;;;27.42;16.20;;;1.60;99.90;;;;;;5093748;28;20091;-78
2021/12/23 08:55:16;;;;;;;26.13;15.90;;;-0.20;99.90;;;;;;5093918;28;20047;-76
2021/12/23 08:57:42;;;;;;;23.70;15.32;;;-0.20;99.90;;;;;;5093941;28;20044;-78
2021/12/23 09:00:11;;;;;;;25.27;15.05;;;1.80;99.90;;;;;;5093595;28;20376;-75
2021/12/23 09:02:37;;;;;;;27.63;16.23;;;-0.20;99.90;;;;;;5075784;28;20131;-79
2021/12/23 09:05:04;;;;;;;28.35;17.20;;;1.80;99.90;;;;;;5075559;28;20501;-75
2021/12/23 09:07:29;;;;;;;;;;;-0.20;99.90;;;;;;5094079;28;20070;-75
2021/12/23 09:09:56;;;;;;;31.77;17.48;;;-0.40;99.90;;;;;;5093806;28;20007;-79
2021/12/23 09:12:21;;;;;;;;;;;-0.20;99.90;;;;;;5094118;28;20059;-75
2021/12/23 09:14:47;;;;;;;24.95;14.40;;;-1.00;99.90;;;;;;5093518;28;19920;-77
2021/12/23 09:17:14;;;;;;;29.83;16.48;;;-0.20;99.90;;;;;;5093477;28;20130;-75
2021/12/23 09:19:40;;;;;;;27.98;16.25;;;0.30;99.90;;;;;;5093599;28;20047;-76
2021/12/23 09:22:05;;;;;;;28.98;16.73;;;-0.20;99.90;;;;;;5075123;28;20550;-75
2021/12/23 09:24:32;;;;;;;28.50;16.35;;;-0.10;99.90;;;;;;5093147;28;20136;-76
2021/12/23 09:27:14;;;;;;;30.65;18.10;;;-0.10;99.90;;;;;;5093549;28;20058;-75
2021/12/23 09:34:53;;;;;;;27.88;17.27;;;-0.10;99.90;;;;;;5093148;28;20189;-78
2021/12/23 09:37:20;;;;;;;24.48;16.50;;;0.10;99.90;;;;;;5074786;28;20052;-76
2021/12/23 09:39:52;;;;;;;;;;;-0.20;99.90;;;;;;5093651;28;20518;-76
2021/12/23 09:42:23;;;;;;;27.00;16.27;;;-0.10;99.90;;;;;;5093303;28;20014;-76
2021/12/23 09:44:49;;;;;;;30.33;18.17;;;-0.10;99.90;;;;;;5075278;28;20090;-74
2021/12/23 09:47:16;;;;;;;28.92;18.25;;;-0.10;99.90;;;;;;5075233;28;20545;-76
2021/12/23 09:49:42;;;;;;;;;;;-0.10;99.90;;;;;;5093523;28;20130;-76
2021/12/23 09:52:08;;;;;;;30.70;18.10;;;-0.10;99.90;;;;;;5093324;28;19970;-78
2021/12/23 09:54:37;;;;;;;34.33;18.75;;;-0.10;99.90;;;;;;5093278;28;20054;-74
2021/12/23 09:57:04;;;;;;;33.97;18.95;;;-0.10;99.90;;;;;;5075363;28;20441;-76
2021/12/23 09:59:30;;;;;;;30.17;17.20;;;0.00;99.90;;;;;;5093202;28;20135;-78
2021/12/23 10:01:56;;;;;;;28.17;17.63;;;0.30;99.90;;;;;;5092949;28;20083;-76
2021/12/23 10:04:21;;;;;;;29.88;17.63;;;-0.10;99.90;;;;;;5092952;28;20058;-75
2021/12/23 10:06:48;;;;;;;33.38;17.98;;;0.00;99.90;;;;;;5074929;28;20040;-75
2021/12/23 10:09:25;;;;;;;33.85;19.15;;;0.00;99.90;;;;;;5093057;28;20513;-77
2021/12/23 10:31:03;;;;;;;;;;;-0.10;99.90;;;;;;5096993;28;20499;-75
2021/12/23 10:33:46;;;;;;;36.15;20.63;;;-0.10;99.90;;;;;;5096523;28;19920;-76
2021/12/23 10:38:50;;;;;;;35.90;20.40;;;-0.10;99.90;;;;;;5096529;28;20051;-77
2021/12/23 10:41:21;;;;;;;32.50;20.33;;;-0.10;99.90;;;;;;5078530;28;20483;-76
2021/12/23 10:43:48;;;;;;;39.90;21.35;;;-0.10;99.90;;;;;;5096274;28;20080;-78
2021/12/23 10:46:36;;;;;;;42.05;22.70;;;-0.10;99.90;;;;;;5077875;28;20067;-77
2021/12/23 10:52:02;;;;;;;38.80;22.13;;;0.50;99.90;;;;;;5078886;28;20070;-78
2021/12/23 11:00:21;;;;;;;40.90;22.67;;;-0.10;99.90;;;;;;5096001;28;20058;-76
2021/12/23 11:02:56;;;;;;;37.70;22.98;;;0.60;99.90;;;;;;5095914;28;20089;-78
2021/12/23 11:05:27;;;;;;;43.22;23.60;;;1.50;99.90;;;;;;5077866;28;20126;-79
2021/12/23 11:08:12;;;;;;;40.45;22.42;;;-0.10;99.90;;;;;;5095913;28;20477;-78
2021/12/23 11:31:28;;;;;;;41.85;25.00;;;-0.10;99.90;;;;;;5095418;28;20052;-77
2021/12/23 11:43:54;;;;;;;36.58;21.80;;;-0.10;99.90;;;;;;5095354;28;20387;-78
2021/12/23 11:46:28;;;;;;;41.58;24.00;;;-0.30;99.90;;;;;;5095032;28;20040;-77
2021/12/23 11:48:57;;;;;;;45.05;24.38;;;1.20;99.90;;;;;;5095105;28;20058;-76
2021/12/23 11:51:46;;;;;;;43.42;24.35;;;-0.10;99.90;;;;;;5077129;28;20376;-79
2021/12/23 11:54:15;;;;;;;43.67;23.85;;;-0.10;99.90;;;;;;5095065;28;20123;-79
2021/12/23 11:56:46;;;;;;;37.80;23.23;;;-0.10;99.90;;;;;;5094978;28;20433;-77
2021/12/23 11:59:14;;;;;;;43.83;26.00;;;-0.10;99.90;;;;;;5094976;28;20044;-77
2021/12/23 12:01:53;;;;;;;40.53;22.65;;;0.80;99.90;;;;;;5077073;28;20081;-76
2021/12/23 12:04:37;;;;;;;42.95;23.67;;;-0.10;99.90;;;;;;5094932;28;20048;-78
2021/12/23 12:07:29;;;;;;;52.60;27.80;;;-0.10;99.90;;;;;;5094869;28;20052;-77
2021/12/23 12:10:01;;;;;;;44.55;25.90;;;1.10;99.90;;;;;;5072917;28;20095;-79
2021/12/23 12:12:29;;;;;;;45.42;25.15;;;-0.10;99.90;;;;;;5076668;28;20126;-77
2021/12/23 12:14:56;;;;;;;68.20;42.65;;;-0.10;99.90;;;;;;5094682;28;20048;-77
2021/12/23 12:19:57;;;;;;;58.20;33.20;;;0.40;99.90;;;;;;5094547;28;20059;-77
2021/12/23 12:22:45;;;;;;;53.88;30.48;;;0.10;99.90;;;;;;5076265;28;20052;-79
2021/12/23 12:25:32;;;;;;;51.33;27.40;;;0.00;99.90;;;;;;5094161;28;20552;-77
2021/12/23 12:28:00;;;;;;;;;;;0.00;99.90;;;;;;5094673;28;20388;-78
2021/12/23 12:30:49;;;;;;;;;;;0.00;99.90;;;;;;5076885;28;20259;-81
2021/12/23 12:33:23;;;;;;;41.30;22.52;;;0.00;99.90;;;;;;5070786;28;19920;-80
2021/12/23 12:36:02;;;;;;;45.03;26.52;;;1.80;99.90;;;;;;5094426;28;20043;-80
2021/12/23 12:38:48;;;;;;;56.95;35.90;;;0.00;99.90;;;;;;5094168;28;20131;-80
2021/12/23 12:41:24;;;;;;;63.30;38.72;;;0.00;99.90;;;;;;5094050;28;20126;-77
2021/12/23 12:44:13;;;;;;;63.63;37.80;;;0.10;99.90;;;;;;5093910;28;20040;-81
2021/12/23 12:46:46;;;;;;;60.08;32.72;;;0.00;99.90;;;;;;5093877;28;20310;-77
2021/12/23 12:49:28;;;;;;;47.30;26.55;;;1.30;99.90;;;;;;5093706;28;20085;-78
2021/12/23 12:52:17;;;;;;;49.78;29.70;;;0.10;99.90;;;;;;5093868;28;20044;-77
2021/12/23 12:54:55;;;;;;;49.70;28.00;;;0.10;99.90;;;;;;5093986;28;20109;-81
2021/12/23 12:57:31;;;;;;;51.00;28.52;;;0.10;99.90;;;;;;5093848;28;20127;-77
2021/12/23 13:00:00;;;;;;;48.05;27.13;;;1.20;99.90;;;;;;5093806;28;20450;-79
2021/12/23 13:02:30;;;;;;;51.60;29.50;;;0.10;99.90;;;;;;5093644;28;20052;-76
2021/12/23 13:05:08;;;;;;;54.30;29.40;;;1.30;99.90;;;;;;5093546;28;20079;-76
2021/12/23 13:07:39;;;;;;;52.25;29.95;;;0.10;99.90;;;;;;5093626;28;20109;-78
2021/12/23 13:10:08;;;;;;;53.03;28.42;;;0.10;99.90;;;;;;5093614;28;20044;-76
2021/12/23 13:12:49;;;;;;;51.22;28.00;;;0.10;99.90;;;;;;5093580;28;20059;-80
2021/12/23 13:15:20;;;;;;;54.78;29.60;;;0.20;99.90;;;;;;5093362;28;20040;-76
2021/12/23 13:17:59;;;;;;;48.60;29.73;;;0.10;99.90;;;;;;5109599;28;20047;-75
2021/12/23 13:20:40;;;;;;;57.35;28.70;;;1.60;99.90;;;;;;5093611;28;20083;-80
2021/12/23 13:23:13;;;;;;;49.97;27.60;;;0.20;99.90;;;;;;5075035;28;20056;-77
2021/12/23 13:25:47;;;;;;;57.30;30.95;;;0.70;99.90;;;;;;5093255;28;20039;-78
2021/12/23 13:28:25;;;;;;;54.10;28.20;;;1.70;99.90;;;;;;5093651;28;20048;-76
2021/12/23 13:30:51;;;;;;;51.38;28.17;;;0.20;99.90;;;;;;5093356;28;20044;-76
2021/12/23 13:33:17;;;;;;;52.42;29.08;;;0.20;99.90;;;;;;5093344;28;20043;-78
2021/12/23 13:35:42;;;;;;;56.00;30.25;;;1.60;99.90;;;;;;5075566;28;20577;-77
2021/12/23 13:38:10;;;;;;;49.08;28.15;;;0.20;99.90;;;;;;5075458;28;20128;-79
2021/12/23 13:40:39;;;;;;;52.63;29.23;;;0.40;99.90;;;;;;5093129;28;20047;-76
2021/12/23 13:43:05;;;;;;;52.55;29.40;;;1.50;99.90;;;;;;5093435;28;20044;-77
2021/12/23 13:45:31;;;;;;;49.30;27.95;;;0.20;99.90;;;;;;5093196;28;20032;-76
2021/12/23 13:47:58;;;;;;;56.17;29.42;;;0.20;99.90;;;;;;5075535;28;20048;-79
2021/12/23 13:50:27;;;;;;;49.90;29.67;;;0.30;99.90;;;;;;5075409;28;20494;-76
2021/12/23 13:52:54;;;;;;;59.50;30.70;;;1.80;99.90;;;;;;5075080;28;20087;-76
2021/12/23 13:55:24;;;;;;;55.08;30.20;;;0.30;99.90;;;;;;5092004;28;20044;-80
2021/12/23 13:57:56;;;;;;;46.33;29.65;;;2.50;99.90;;;;;;5093258;28;20126;-79